createdAt,value
2017-12-06T00:00:58.069Z,17.90
2017-12-06T00:03:25.569Z,18.17
2017-12-06T00:05:53.004Z,19.02
2017-12-06T00:08:20.449Z,18.90
2017-12-06T00:10:47.908Z,17.65
2017-12-06T00:13:20.932Z,17.95
2017-12-06T00:15:48.550Z,19.00
2017-12-06T00:18:16.741Z,18.80
2017-12-06T00:20:44.184Z,18.62
2017-12-06T00:23:11.758Z,17.87
2017-12-06T00:25:39.230Z,18.40
2017-12-06T00:28:06.664Z,19.40
2017-12-06T00:30:39.144Z,19.05
2017-12-06T00:33:06.578Z,18.12
2017-12-06T00:35:34.022Z,17.08
2017-12-06T00:38:01.565Z,20.30
2017-12-06T00:40:30.737Z,19.37
2017-12-06T00:42:58.220Z,19.20
2017-12-06T00:45:26.417Z,18.92
2017-12-06T00:47:53.849Z,18.60
2017-12-06T00:50:22.076Z,19.02
2017-12-06T00:52:49.580Z,19.00
2017-12-06T00:55:17.276Z,20.20
2017-12-06T00:57:44.728Z,19.05
2017-12-06T01:00:12.188Z,20.08
2017-12-06T01:02:39.644Z,19.50
2017-12-06T01:05:09.592Z,18.90
2017-12-06T01:07:37.037Z,18.92
2017-12-06T01:10:04.501Z,19.85
2017-12-06T01:12:31.949Z,19.50
2017-12-06T01:14:59.729Z,19.42
2017-12-06T01:17:27.166Z,19.62
2017-12-06T01:19:55.049Z,20.45
2017-12-06T01:22:22.476Z,19.10
2017-12-06T01:24:49.917Z,19.08
2017-12-06T01:27:21.981Z,18.95
2017-12-06T01:29:50.517Z,17.77
2017-12-06T01:32:17.973Z,16.87
2017-12-06T01:34:45.409Z,18.20
2017-12-06T01:37:13.760Z,17.87
2017-12-06T01:39:41.999Z,17.37
2017-12-06T01:42:09.456Z,17.85
2017-12-06T01:44:36.904Z,17.45
2017-12-06T01:47:04.351Z,18.35
2017-12-06T01:49:31.823Z,17.48
2017-12-06T01:52:08.292Z,20.98
2017-12-06T01:54:35.723Z,19.85
2017-12-06T01:57:03.284Z,18.65
2017-12-06T01:59:30.724Z,17.65
2017-12-06T02:01:58.157Z,17.67
2017-12-06T02:04:26.428Z,18.52
2017-12-06T02:06:54.646Z,17.62
2017-12-06T02:09:23.092Z,19.37
2017-12-06T02:11:51.295Z,18.80
2017-12-06T02:14:18.757Z,23.15
2017-12-06T02:16:46.197Z,19.65
2017-12-06T02:19:13.676Z,20.17
2017-12-06T02:21:41.114Z,19.58
2017-12-06T02:24:08.549Z,20.17
2017-12-06T02:26:40.985Z,19.50
2017-12-06T02:29:08.729Z,20.80
2017-12-06T02:31:36.168Z,19.95
2017-12-06T02:34:03.618Z,20.35
2017-12-06T02:36:31.844Z,18.60
2017-12-06T02:38:59.281Z,19.35
2017-12-06T02:41:38.696Z,21.02
2017-12-06T02:44:18.121Z,21.00
2017-12-06T02:46:46.360Z,19.20
2017-12-06T02:49:13.788Z,21.15
2017-12-06T02:51:41.225Z,19.25
2017-12-06T02:54:13.530Z,21.67
2017-12-06T02:56:40.966Z,21.12
2017-12-06T02:59:08.458Z,19.65
2017-12-06T03:01:36.875Z,21.05
2017-12-06T03:04:05.173Z,20.33
2017-12-06T03:06:32.769Z,19.62
2017-12-06T03:09:00.205Z,19.15
2017-12-06T03:11:27.711Z,17.90
2017-12-06T03:13:55.152Z,19.25
2017-12-06T03:16:23.542Z,18.73
2017-12-06T03:18:51.033Z,19.17
2017-12-06T03:21:19.230Z,17.58
2017-12-06T03:23:46.666Z,18.40
2017-12-06T03:26:14.271Z,19.87
2017-12-06T03:28:41.701Z,18.95
2017-12-06T03:31:09.347Z,18.48
2017-12-06T03:33:36.780Z,19.42
2017-12-06T03:36:05.009Z,19.25
2017-12-06T03:38:32.446Z,20.48
2017-12-06T03:40:59.906Z,19.85
2017-12-06T03:43:27.341Z,18.87
2017-12-06T03:45:55.870Z,19.10
2017-12-06T03:48:23.315Z,19.55
2017-12-06T03:50:50.773Z,19.67
2017-12-06T03:53:18.212Z,19.20
2017-12-06T03:55:45.644Z,18.83
2017-12-06T03:58:13.853Z,18.90
2017-12-06T04:00:41.412Z,18.92
2017-12-06T04:03:08.852Z,19.00
2017-12-06T04:05:36.289Z,19.90
2017-12-06T04:08:04.521Z,19.77
2017-12-06T04:10:31.985Z,20.30
2017-12-06T04:12:59.437Z,20.12
2017-12-06T04:15:26.993Z,20.12
2017-12-06T04:17:54.453Z,19.25
2017-12-06T04:20:21.894Z,19.70
2017-12-06T04:22:49.418Z,19.23
2017-12-06T04:25:17.619Z,18.98
2017-12-06T04:27:45.085Z,19.00
2017-12-06T04:30:22.841Z,18.17
2017-12-06T04:32:51.045Z,18.60
2017-12-06T04:35:18.500Z,17.65
2017-12-06T04:37:45.941Z,18.62
2017-12-06T04:40:14.170Z,18.77
2017-12-06T04:42:41.610Z,17.62
2017-12-06T04:45:09.074Z,17.73
2017-12-06T04:47:36.509Z,18.27
2017-12-06T04:50:04.113Z,17.27
2017-12-06T04:52:34.540Z,17.80
2017-12-06T04:55:02.003Z,17.73
2017-12-06T04:57:29.436Z,17.20
2017-12-06T04:59:56.897Z,18.33
2017-12-06T05:02:24.336Z,17.85
2017-12-06T05:04:51.773Z,17.85
2017-12-06T05:07:19.285Z,17.77
2017-12-06T05:09:48.722Z,17.87
2017-12-06T05:12:16.928Z,19.42
2017-12-06T05:14:44.397Z,18.45
2017-12-06T05:17:11.865Z,19.33
2017-12-06T05:19:39.305Z,19.42
2017-12-06T05:22:07.090Z,18.17
2017-12-06T05:24:34.539Z,18.67
2017-12-06T05:27:02.101Z,17.83
2017-12-06T05:29:30.606Z,18.70
2017-12-06T05:31:58.041Z,18.08
2017-12-06T05:34:25.504Z,18.52
2017-12-06T05:36:52.946Z,19.37
2017-12-06T05:39:21.181Z,18.15
2017-12-06T05:41:49.383Z,19.30
2017-12-06T05:44:16.925Z,18.35
2017-12-06T05:46:53.320Z,19.33
2017-12-06T05:49:20.797Z,17.45
2017-12-06T05:51:48.241Z,18.15
2017-12-06T05:54:15.713Z,17.85
2017-12-06T05:56:43.149Z,17.77
2017-12-06T05:59:10.629Z,16.95
2017-12-06T06:01:38.060Z,16.65
2017-12-06T06:04:05.492Z,18.90
2017-12-06T06:06:33.015Z,17.55
2017-12-06T06:09:00.481Z,16.45
2017-12-06T06:11:27.910Z,16.83
2017-12-06T06:13:55.376Z,16.80
2017-12-06T06:16:22.817Z,17.42
2017-12-06T06:18:50.283Z,17.87
2017-12-06T06:21:17.748Z,16.90
2017-12-06T06:23:45.192Z,16.35
2017-12-06T06:26:12.749Z,17.70
2017-12-06T06:28:40.226Z,19.87
2017-12-06T06:31:07.680Z,20.20
2017-12-06T06:33:37.545Z,21.40
2017-12-06T06:36:05.013Z,23.48
2017-12-06T06:38:32.448Z,21.95
2017-12-06T06:41:00.677Z,24.73
2017-12-06T06:43:31.920Z,26.58
2017-12-06T06:45:59.449Z,21.15
2017-12-06T06:48:26.896Z,34.83
2017-12-06T06:50:54.334Z,50.08
2017-12-06T06:53:22.566Z,18.60
2017-12-06T06:55:50.003Z,31.90
2017-12-06T06:58:17.482Z,20.65
2017-12-06T07:00:44.926Z,30.45
2017-12-06T07:03:13.248Z,24.95
2017-12-06T07:05:40.680Z,27.80
2017-12-06T07:08:08.113Z,19.35
2017-12-06T07:10:36.480Z,17.73
2017-12-06T07:13:03.921Z,16.55
2017-12-06T07:15:32.173Z,30.20
2017-12-06T07:17:59.612Z,21.73
2017-12-06T07:20:27.057Z,17.20
2017-12-06T07:22:54.653Z,21.58
2017-12-06T07:25:22.093Z,17.23
2017-12-06T07:27:49.536Z,20.27
2017-12-06T07:30:17.141Z,20.52
2017-12-06T07:32:45.342Z,17.90
2017-12-06T07:35:12.791Z,15.23
2017-12-06T07:37:40.257Z,13.90
2017-12-06T07:40:07.701Z,16.02
2017-12-06T07:42:35.205Z,15.40
2017-12-06T07:45:02.644Z,16.17
2017-12-06T07:47:30.108Z,15.20
2017-12-06T07:49:57.684Z,14.05
2017-12-06T07:52:25.129Z,17.27
2017-12-06T07:54:52.617Z,16.10
2017-12-06T07:57:20.197Z,20.35
2017-12-06T07:59:48.406Z,16.40
2017-12-06T08:02:15.858Z,16.58
2017-12-06T08:04:43.324Z,18.65
2017-12-06T08:07:10.764Z,15.55
2017-12-06T08:09:38.373Z,15.88
2017-12-06T08:12:05.821Z,21.55
2017-12-06T08:14:33.293Z,32.80
2017-12-06T08:17:00.728Z,19.50
2017-12-06T08:19:28.208Z,16.85
2017-12-06T08:21:55.649Z,30.40
2017-12-06T08:24:23.119Z,14.23
2017-12-06T08:26:50.569Z,17.62
2017-12-06T08:29:18.009Z,10.43
2017-12-06T08:31:47.298Z,9.70
2017-12-06T08:34:15.521Z,12.15
2017-12-06T08:36:42.973Z,23.73
2017-12-06T08:39:10.453Z,14.48
2017-12-06T08:41:38.664Z,16.83
2017-12-06T08:44:06.100Z,9.02
2017-12-06T08:46:33.686Z,15.30
2017-12-06T08:49:01.129Z,16.95
2017-12-06T08:51:28.562Z,10.10
2017-12-06T08:53:57.101Z,9.90
2017-12-06T08:56:24.568Z,9.38
2017-12-06T08:58:52.013Z,9.98
2017-12-06T09:01:19.453Z,8.90
2017-12-06T09:03:46.908Z,12.25
2017-12-06T09:06:14.385Z,10.20
2017-12-06T09:08:41.817Z,10.13
2017-12-06T09:11:09.449Z,11.77
2017-12-06T09:13:37.700Z,10.68
2017-12-06T09:16:05.144Z,9.85
2017-12-06T09:18:32.580Z,9.00
2017-12-06T09:21:00.053Z,9.65
2017-12-06T09:23:27.491Z,9.57
2017-12-06T09:25:54.929Z,9.52
2017-12-06T09:28:22.572Z,9.55
2017-12-06T09:30:50.774Z,9.10
2017-12-06T09:33:18.414Z,8.80
2017-12-06T09:35:46.652Z,7.90
2017-12-06T09:38:14.078Z,8.82
2017-12-06T09:40:41.541Z,9.40
2017-12-06T09:43:08.965Z,8.85
2017-12-06T09:45:38.851Z,9.82
2017-12-06T09:48:06.300Z,10.43
2017-12-06T09:50:33.732Z,8.98
2017-12-06T09:53:01.202Z,8.60
2017-12-06T09:55:29.104Z,8.52
2017-12-06T09:57:56.521Z,8.60
2017-12-06T10:00:24.004Z,8.13
2017-12-06T10:02:51.626Z,8.10
2017-12-06T10:05:19.065Z,8.90
2017-12-06T10:07:46.497Z,9.00
2017-12-06T10:10:14.726Z,8.88
2017-12-06T10:12:42.162Z,9.10
2017-12-06T10:15:09.656Z,8.65
2017-12-06T10:17:37.093Z,9.02
2017-12-06T10:20:04.560Z,9.40
2017-12-06T10:22:33.361Z,9.43
2017-12-06T10:25:00.817Z,8.98
2017-12-06T10:27:28.252Z,10.65
2017-12-06T10:29:56.554Z,10.25
2017-12-06T10:32:24.037Z,9.52
2017-12-06T10:34:51.481Z,10.10
2017-12-06T10:37:18.956Z,9.80
2017-12-06T10:39:47.165Z,9.77
2017-12-06T10:42:14.597Z,9.70
2017-12-06T10:44:42.871Z,8.90
2017-12-06T10:47:11.073Z,10.02
2017-12-06T10:49:38.537Z,8.57
2017-12-06T10:52:05.979Z,8.90
2017-12-06T10:54:33.446Z,10.23
2017-12-06T10:57:04.757Z,9.63
2017-12-06T10:59:32.988Z,10.02
2017-12-06T11:02:00.420Z,9.32
2017-12-06T11:04:28.013Z,8.90
2017-12-06T11:06:55.461Z,10.70
2017-12-06T11:09:22.929Z,10.30
2017-12-06T11:11:50.369Z,9.70
2017-12-06T11:14:17.861Z,9.20
2017-12-06T11:16:45.297Z,9.70
2017-12-06T11:19:12.737Z,9.02
2017-12-06T11:21:40.257Z,9.65
2017-12-06T11:24:08.464Z,9.85
2017-12-06T11:26:36.241Z,9.95
2017-12-06T11:29:03.694Z,11.63
2017-12-06T11:31:31.138Z,9.43
2017-12-06T11:33:58.733Z,9.35
2017-12-06T11:36:26.260Z,9.40
2017-12-06T11:38:53.735Z,9.73
2017-12-06T11:41:21.180Z,10.05
2017-12-06T11:43:48.642Z,9.90
2017-12-06T11:46:16.094Z,10.32
2017-12-06T11:48:43.590Z,9.32
2017-12-06T11:51:11.024Z,9.38
2017-12-06T11:53:38.525Z,9.88
2017-12-06T11:56:05.965Z,10.70
2017-12-06T11:58:33.409Z,9.88
2017-12-06T12:01:00.884Z,10.10
2017-12-06T12:03:28.329Z,10.18
2017-12-06T12:05:55.885Z,9.68
2017-12-06T12:08:23.325Z,9.80
2017-12-06T12:10:50.809Z,9.55
2017-12-06T12:13:18.253Z,10.27
2017-12-06T12:15:45.773Z,10.00
2017-12-06T12:18:13.208Z,10.60
2017-12-06T12:20:40.653Z,10.68
2017-12-06T12:23:08.332Z,9.75
2017-12-06T12:25:35.761Z,12.05
2017-12-06T12:28:03.205Z,22.73
2017-12-06T12:30:30.676Z,17.87
2017-12-06T12:32:58.164Z,12.68
2017-12-06T12:35:26.377Z,10.68
2017-12-06T12:37:53.816Z,10.70
2017-12-06T12:40:21.500Z,9.45
2017-12-06T12:42:48.937Z,10.77
2017-12-06T12:45:16.553Z,10.80
2017-12-06T12:47:43.957Z,9.55
2017-12-06T12:50:11.418Z,9.90
2017-12-06T12:52:38.910Z,16.80
2017-12-06T12:55:06.379Z,11.00
2017-12-06T12:57:33.820Z,9.40
2017-12-06T13:00:02.245Z,13.85
2017-12-06T13:02:30.444Z,17.00
2017-12-06T13:04:57.940Z,14.07
2017-12-06T13:07:25.406Z,16.15
2017-12-06T13:09:53.185Z,9.75
2017-12-06T13:12:20.660Z,13.93
2017-12-06T13:14:48.877Z,10.90
2017-12-06T13:17:16.413Z,10.70
2017-12-06T13:19:43.861Z,10.93
2017-12-06T13:22:12.089Z,11.05
2017-12-06T13:24:39.530Z,10.95
2017-12-06T13:27:07.036Z,16.73
2017-12-06T13:29:34.470Z,32.45
2017-12-06T13:32:01.942Z,11.93
2017-12-06T13:34:30.738Z,15.02
2017-12-06T13:36:58.470Z,10.95
2017-12-06T13:39:25.929Z,10.38
2017-12-06T13:41:53.393Z,12.63
2017-12-06T13:44:20.853Z,15.15
2017-12-06T13:46:48.333Z,20.40
2017-12-06T13:49:15.772Z,19.12
2017-12-06T13:51:43.214Z,9.88
2017-12-06T13:54:10.757Z,11.05
2017-12-06T13:56:38.184Z,10.00
2017-12-06T13:59:05.626Z,11.50
2017-12-06T14:01:35.090Z,10.25
2017-12-06T14:04:02.526Z,13.48
2017-12-06T14:06:30.756Z,11.30
2017-12-06T14:08:58.716Z,9.48
2017-12-06T14:11:26.156Z,16.92
2017-12-06T14:13:53.596Z,12.00
2017-12-06T14:16:21.060Z,13.25
2017-12-06T14:18:48.554Z,10.85
2017-12-06T14:21:15.989Z,13.70
2017-12-06T14:23:43.429Z,10.85
2017-12-06T14:26:11.089Z,16.15
2017-12-06T14:28:38.520Z,14.05
2017-12-06T14:31:05.985Z,13.25
2017-12-06T14:33:33.473Z,18.30
2017-12-06T14:36:01.186Z,78.62
2017-12-06T14:38:29.410Z,14.68
2017-12-06T14:40:56.876Z,16.65
2017-12-06T14:43:25.720Z,11.55
2017-12-06T14:45:53.168Z,12.40
2017-12-06T14:48:21.368Z,14.15
2017-12-06T14:50:48.839Z,12.00
2017-12-06T14:53:17.433Z,11.63
2017-12-06T14:55:44.866Z,12.37
2017-12-06T14:58:12.305Z,10.65
2017-12-06T15:00:39.905Z,10.75
2017-12-06T15:03:07.377Z,11.18
2017-12-06T15:05:34.809Z,14.45
2017-12-06T15:08:02.301Z,12.50
2017-12-06T15:10:29.753Z,11.43
2017-12-06T15:12:57.194Z,11.93
2017-12-06T15:15:24.663Z,12.27
2017-12-06T15:17:52.304Z,12.02
2017-12-06T15:20:19.750Z,15.55
2017-12-06T15:22:51.109Z,24.75
2017-12-06T15:25:18.568Z,20.48
2017-12-06T15:27:46.045Z,18.77
2017-12-06T15:30:13.486Z,20.83
2017-12-06T15:32:42.274Z,15.30
2017-12-06T15:35:09.717Z,14.90
2017-12-06T15:37:37.172Z,14.43
2017-12-06T15:40:08.341Z,12.95
2017-12-06T15:42:35.786Z,13.73
2017-12-06T15:45:03.234Z,12.25
2017-12-06T15:47:30.692Z,12.95
2017-12-06T15:49:58.185Z,11.98
2017-12-06T15:52:25.629Z,13.88
2017-12-06T15:54:53.073Z,14.50
2017-12-06T15:57:20.661Z,12.60
2017-12-06T15:59:48.100Z,13.05
2017-12-06T16:02:15.729Z,14.10
2017-12-06T16:07:17.499Z,12.60
2017-12-06T16:09:45.074Z,13.50
2017-12-06T16:12:15.486Z,12.95
2017-12-06T16:14:43.194Z,12.88
2017-12-06T16:17:10.886Z,13.18
2017-12-06T16:19:38.309Z,13.20
2017-12-06T16:22:05.778Z,13.20
2017-12-06T16:24:34.217Z,13.50
2017-12-06T16:27:01.677Z,13.07
2017-12-06T16:29:29.146Z,12.85
2017-12-06T16:31:56.720Z,13.50
2017-12-06T16:34:24.269Z,15.20
2017-12-06T16:37:03.694Z,14.60
2017-12-06T16:39:31.130Z,14.48
2017-12-06T16:41:59.410Z,14.32
2017-12-06T16:44:28.863Z,14.30
2017-12-06T16:46:56.293Z,14.87
2017-12-06T16:49:23.868Z,14.45
2017-12-06T16:51:51.310Z,14.85
2017-12-06T16:54:18.750Z,15.60
2017-12-06T16:56:46.236Z,16.87
2017-12-06T16:59:13.691Z,16.52
2017-12-06T17:01:41.121Z,17.17
2017-12-06T17:04:08.601Z,18.45
2017-12-06T17:06:36.090Z,17.00
2017-12-06T17:09:03.561Z,18.08
2017-12-06T17:11:31.029Z,17.12
2017-12-06T17:13:59.239Z,18.42
2017-12-06T17:16:26.664Z,18.08
2017-12-06T17:18:54.904Z,17.80
2017-12-06T17:21:22.383Z,18.08
2017-12-06T17:23:49.830Z,17.10
2017-12-06T17:26:17.260Z,18.37
2017-12-06T17:28:57.103Z,28.67
2017-12-06T17:31:36.465Z,18.65
2017-12-06T17:34:03.936Z,17.92
2017-12-06T17:36:31.372Z,21.12
2017-12-06T17:38:59.156Z,49.92
2017-12-06T17:41:26.681Z,29.40
2017-12-06T17:43:54.543Z,26.33
2017-12-06T17:46:23.046Z,43.67
2017-12-06T17:48:51.048Z,38.08
2017-12-06T17:51:18.964Z,25.58
2017-12-06T17:53:46.901Z,19.30
2017-12-06T17:56:14.818Z,16.65
2017-12-06T17:58:42.656Z,18.62
2017-12-06T18:01:10.447Z,24.40
2017-12-06T18:03:38.640Z,95.18
2017-12-06T18:06:07.294Z,63.65
2017-12-06T18:08:35.101Z,49.88
2017-12-06T18:11:04.996Z,53.83
2017-12-06T18:13:32.896Z,50.00
2017-12-06T18:16:00.833Z,46.72
2017-12-06T18:18:28.285Z,57.92
2017-12-06T18:20:55.725Z,34.75
2017-12-06T18:23:23.260Z,42.58
2017-12-06T18:25:58.358Z,26.90
2017-12-06T18:28:25.816Z,26.80
2017-12-06T18:30:53.443Z,42.70
2017-12-06T18:33:20.876Z,40.72
2017-12-06T18:35:48.373Z,55.00
2017-12-06T18:38:15.928Z,25.23
2017-12-06T18:40:43.360Z,37.38
2017-12-06T18:43:11.808Z,28.80
2017-12-06T18:45:40.017Z,68.57
2017-12-06T18:48:07.484Z,92.70
2017-12-06T18:50:35.010Z,40.58
2017-12-06T18:53:11.042Z,23.80
2017-12-06T18:55:38.490Z,29.83
2017-12-06T18:58:05.984Z,13.38
2017-12-06T19:00:34.207Z,24.23
2017-12-06T19:03:09.376Z,14.98
2017-12-06T19:05:36.816Z,23.30
2017-12-06T19:08:04.258Z,14.60
2017-12-06T19:10:31.812Z,13.82
2017-12-06T19:13:00.006Z,14.25
2017-12-06T19:15:27.446Z,20.02
2017-12-06T19:17:55.891Z,12.85
2017-12-06T19:20:24.111Z,12.25
2017-12-06T19:22:52.537Z,13.23
2017-12-06T19:25:20.769Z,12.07
2017-12-06T19:27:48.519Z,13.30
2017-12-06T19:30:21.195Z,14.02
2017-12-06T19:32:49.411Z,14.07
2017-12-06T19:35:16.874Z,13.23
2017-12-06T19:37:44.337Z,16.87
2017-12-06T19:40:11.778Z,15.07
2017-12-06T19:42:39.241Z,18.60
2017-12-06T19:45:06.680Z,19.95
2017-12-06T19:47:35.318Z,23.90
2017-12-06T19:50:03.119Z,41.00
2017-12-06T19:52:30.615Z,53.50
2017-12-06T19:54:58.985Z,34.25
2017-12-06T19:57:26.928Z,33.42
2017-12-06T19:59:54.426Z,32.88
2017-12-06T20:02:21.824Z,24.92
2017-12-06T20:04:51.450Z,42.05
2017-12-06T20:07:18.910Z,33.08
2017-12-06T20:09:46.576Z,84.47
2017-12-06T20:12:14.023Z,43.38
2017-12-06T20:14:56.538Z,38.03
2017-12-06T20:17:23.981Z,29.17
2017-12-06T20:19:52.617Z,32.60
2017-12-06T20:22:21.684Z,33.65
2017-12-06T20:24:49.132Z,49.80
2017-12-06T20:27:16.576Z,39.38
2017-12-06T20:29:44.102Z,18.58
2017-12-06T20:32:25.204Z,21.85
2017-12-06T20:34:52.669Z,48.28
2017-12-06T20:37:20.466Z,28.83
2017-12-06T20:39:47.912Z,46.25
2017-12-06T20:42:15.352Z,27.17
2017-12-06T20:45:04.574Z,16.80
2017-12-06T20:47:32.800Z,33.40
2017-12-06T20:50:00.278Z,19.95
2017-12-06T20:52:32.484Z,18.27
2017-12-06T20:55:00.694Z,17.87
2017-12-06T20:57:28.187Z,15.68
2017-12-06T20:59:56.575Z,16.75
2017-12-06T21:02:24.100Z,13.82
2017-12-06T21:04:55.732Z,18.20
2017-12-06T21:07:24.082Z,18.83
2017-12-06T21:09:51.545Z,17.77
2017-12-06T21:12:19.024Z,14.45
2017-12-06T21:14:52.623Z,16.85
2017-12-06T21:17:20.780Z,14.15
2017-12-06T21:19:48.346Z,15.85
2017-12-06T21:22:15.817Z,17.10
2017-12-06T21:24:43.351Z,29.65
2017-12-06T21:27:10.798Z,14.07
2017-12-06T21:29:38.334Z,14.40
2017-12-06T21:32:10.273Z,20.45
2017-12-06T21:34:37.717Z,16.27
2017-12-06T21:37:06.501Z,40.55
2017-12-06T21:39:33.951Z,17.45
2017-12-06T21:42:01.929Z,11.15
2017-12-06T21:44:30.326Z,13.80
2017-12-06T21:46:57.773Z,10.68
2017-12-06T21:49:25.238Z,10.40
2017-12-06T21:51:52.706Z,10.40
2017-12-06T21:54:20.132Z,9.32
2017-12-06T21:56:47.738Z,9.63
2017-12-06T21:59:15.941Z,10.38
2017-12-06T22:01:48.578Z,9.27
2017-12-06T22:04:16.089Z,10.20
2017-12-06T22:06:43.513Z,9.45
2017-12-06T22:09:12.712Z,6.75
2017-12-06T22:11:40.939Z,7.28
2017-12-06T22:14:08.369Z,7.10
2017-12-06T22:16:35.892Z,7.10
2017-12-06T22:19:03.352Z,7.12
2017-12-06T22:21:31.547Z,7.22
2017-12-06T22:23:59.838Z,7.32
2017-12-06T22:26:28.045Z,7.47
2017-12-06T22:28:55.845Z,7.30
2017-12-06T22:31:24.040Z,7.40
2017-12-06T22:33:51.483Z,7.43
2017-12-06T22:36:19.700Z,8.23
2017-12-06T22:38:48.160Z,8.20
2017-12-06T22:41:15.723Z,7.70
2017-12-06T22:43:43.161Z,7.75
2017-12-06T22:46:11.387Z,7.80
2017-12-06T22:48:38.827Z,8.05
2017-12-06T22:51:06.280Z,7.03
2017-12-06T22:53:33.726Z,7.07
2017-12-06T22:56:01.186Z,7.20
2017-12-06T22:58:28.617Z,7.22
2017-12-06T23:00:56.868Z,6.65
2017-12-06T23:03:24.306Z,6.57
2017-12-06T23:05:51.758Z,6.50
2017-12-06T23:08:19.222Z,6.20
2017-12-06T23:10:46.658Z,6.25
2017-12-06T23:13:23.236Z,6.50
2017-12-06T23:15:51.641Z,6.22
2017-12-06T23:18:19.099Z,5.78
2017-12-06T23:20:46.543Z,5.80
2017-12-06T23:23:14.000Z,5.80
2017-12-06T23:25:42.093Z,6.45
2017-12-06T23:28:09.549Z,6.15
2017-12-06T23:30:36.981Z,6.68
2017-12-06T23:33:04.512Z,6.18
2017-12-06T23:35:31.940Z,5.93
2017-12-06T23:37:59.373Z,6.00
2017-12-06T23:40:26.854Z,6.25
2017-12-06T23:42:54.281Z,5.47
2017-12-06T23:45:22.821Z,5.62
2017-12-06T23:47:50.243Z,5.68
2017-12-06T23:50:17.672Z,5.90
2017-12-06T23:52:45.172Z,5.62
2017-12-06T23:55:13.393Z,5.60
2017-12-06T23:57:40.839Z,5.60
